Nearby METAR Reports

 

KPIB - Pine Belt Rgnl, Mississippi, USA
Distance from station: SSW 12mi, 19km
Updated: Sat, 21-Oct-2017 2:56am CDT
Clear
Clear
 Wind from E
Wind: E 3 mph , 6 km/h
Temperature: 64°F , 18°C
Dew Point: 63°F , 17°C
Humidity: 94%
Barometer: 30.10 inHg , 1019.3 hPa
Clouds: Clear
Visibility: 10 miles , 16 km
2017/10/21 07:56 KPIB 210756Z AUTO 09003KT 10SM CLR 18/17 A3010 RMK AO2 SLP189 T01830167
KHBG - Hattiesburg, Mississippi, USA
Distance from station: S 25mi, 40km
Updated: Sat, 21-Oct-2017 2:53am CDT
Partly cloudy
Partly cloudy
 Wind from calm
Wind: Calm
Temperature: 63°F , 17°C
Dew Point: 63°F , 17°C
Humidity: 100%
Barometer: 30.09 inHg , 1019 hPa
Clouds: Partly cloudy
Visibility: 10 miles , 16 km
Cloud details: Partly cloudy 3500 ft
2017/10/21 07:53 KHBG 210753Z AUTO 00000KT 10SM SCT035 17/17 A3009 RMK AO2 SLP186 T01670167
 
KMEI - Meridian/Key Fld, Mississippi, USA
Distance from station: NNE 57mi, 91km
Updated: Sat, 21-Oct-2017 2:58am CDT
Clear
Clear
 Wind from NNW
Wind: NNW 3 mph , 6 km/h
Temperature: 61°F , 16°C
Dew Point: 57°F , 14°C
Humidity: 88%
Barometer: 30.11 inHg , 1019.6 hPa
Clouds: Clear
Visibility: 10 miles , 16 km
2017/10/21 07:58 KMEI 210758Z AUTO 34003KT 10SM CLR 16/14 A3011 RMK AO2 SLP191 T01610144
KJAN - Jackson, Mississippi, USA
Distance from station: NW 69mi, 111km
Updated: Sat, 21-Oct-2017 2:54am CDT
Clear
Clear
 Wind from SE
Wind: SE 10 mph , 17 km/h
Temperature: 70°F , 21°C
Dew Point: 59°F , 15°C
Humidity: 69%
Barometer: 30.07 inHg , 1018.3 hPa
Clouds: Clear
Visibility: 10 miles , 16 km
2017/10/21 07:54 KJAN 210754Z 13009KT 10SM CLR 21/15 A3007 RMK AO2 SLP179 T02110150
 
K1R7 - Brookhaven, Mississippi, USA
Distance from station: W 70mi, 112km
Updated: Wed, 21-Jun-2017 3:15pm CDT
NOT Current
Mostly cloudy
Mostly cloudy
 Wind from ENE
Wind: ENE 3 mph , 6 km/h
Temperature: 77°F , 25°C
Dew Point: 75°F , 24°C
Humidity: 94%
Barometer: 29.83 inHg , 1010.2 hPa
Clouds: Mostly cloudy
Visibility: 10 miles , 16 km
Cloud details: Mostly cloudy 500 ft
2017/06/21 20:15 K1R7 212015Z AUTO 06003KT 10SM BKN005 25/24 A2983 RMK AO2
KHEZ - Natchez, Mississippi, USA
Distance from station: W 121mi, 195km
Updated: Sat, 21-Oct-2017 2:56am CDT
Partly cloudy
Partly cloudy
 Wind from SE
Wind: SE 6 mph , 9 km/h
Temperature: 70°F , 21°C
Dew Point: 66°F , 19°C
Humidity: 88%
Barometer: 30.05 inHg , 1017.6 hPa
Clouds: Partly cloudy
Visibility: 10 miles , 16 km
Cloud details: Partly cloudy 2600 ft
2017/10/21 07:56 KHEZ 210756Z AUTO 13005KT 10SM SCT026 21/19 A3005 RMK AO2 SLP177 T02060189
 
KNMM - Meridian Nas, Mississippi, USA
Distance from station: NNE 74mi, 119km
Updated: Sat, 21-Oct-2017 2:56am CDT
Clear
Clear
 Wind from calm
Wind: Calm
Temperature: 57°F , 14°C
Dew Point: 55°F , 13°C
Humidity: 94%
Barometer: 30.12 inHg , 1020 hPa
Clouds: Clear
Visibility: 10 miles , 16 km
2017/10/21 07:56 KNMM 210756Z AUTO 00000KT 10SM CLR 14/13 A3012 RMK AO2 VIS 1 1/2 SOUTH SLP207 T01440128 $
KHKS - Jackson/Hawkins, Mississippi, USA
Distance from station: NW 76mi, 122km
Updated: Sat, 21-Oct-2017 2:53am CDT
Clear
Clear
 Wind from SE
Wind: SE 9 mph , 15 km/h
Temperature: 68°F , 20°C
Dew Point: 61°F , 16°C
Humidity: 78%
Barometer: 30.08 inHg , 1018.6 hPa
Clouds: Clear
Visibility: 10 miles , 16 km
2017/10/21 07:53 KHKS 210753Z AUTO 13008KT 10SM CLR 20/16 A3008 RMK AO2 SLP177 T02000161
 
KMCB - Mccomb, Mississippi, USA
Distance from station: WSW 79mi, 127km
Updated: Sat, 21-Oct-2017 2:53am CDT
Overcast
Overcast
 Wind from ESE
Wind: ESE 6 mph , 9 km/h
Temperature: 70°F , 21°C
Dew Point: 64°F , 18°C
Humidity: 83%
Barometer: 30.06 inHg , 1017.9 hPa
Clouds: Overcast
Visibility: 10 miles , 16 km
Cloud details: Few Clouds 3500 ft
Partly cloudy 4200 ft
Overcast 5000 ft
2017/10/21 07:53 KMCB 210753Z AUTO 11005KT 10SM FEW035 SCT042 OVC050 21/18 A3006 RMK AO2 SLP175 T02060183
KGPT - Gulfport, Mississippi, USA
Distance from station: S 84mi, 135km
Updated: Sat, 21-Oct-2017 2:53am CDT
Clear
Clear
 Wind from calm
Wind: Calm
Temperature: 72°F , 22°C
Dew Point: 70°F , 21°C
Humidity: 94%
Barometer: 30.05 inHg , 1017.6 hPa
Clouds: Clear
Visibility: 10 miles , 16 km
2017/10/21 07:53 KGPT 210753Z AUTO 00000KT 10SM CLR 22/21 A3005 RMK AO2 SLP174 T02170206
 
KJVW - Raymond, Mississippi, USA
Distance from station: NW 84mi, 135km
Updated: Sat, 21-Oct-2017 3:35am CDT
Clear
Clear
 Wind from ESE
Wind: ESE 3 mph , 6 km/h
Temperature: 66°F , 19°C
Dew Point: 63°F , 17°C
Humidity: 88%
Barometer: 30.06 inHg , 1017.9 hPa
Clouds: Clear
Visibility: 10 miles , 16 km
2017/10/21 08:35 KJVW 210835Z AUTO 11003KT 10SM CLR 19/17 A3006 RMK AO2
KBIX - Biloxi/Keesler, Mississippi, USA
Distance from station: SSE 85mi, 137km
Updated: Sat, 21-Oct-2017 2:56am CDT
Clear
Clear
 Wind from ENE
Wind: ENE 6 mph , 9 km/h
Temperature: 72°F , 22°C
Dew Point: 68°F , 20°C
Humidity: 88%
Barometer: 30.05 inHg , 1017.6 hPa
Clouds: Clear
Visibility: 10 miles , 16 km
2017/10/21 07:56 KBIX 210756Z AUTO 07005KT 10SM CLR 22/20 A3005 RMK AO2 SLP179 T02180195 $
 
KMOB - Mobile/Bates, Alabama, USA
Distance from station: SE 87mi, 140km
Updated: Sat, 21-Oct-2017 2:56am CDT
Clear
Clear
 Wind from ENE
Wind: ENE 9 mph , 15 km/h
Temperature: 66°F , 19°C
Dew Point: 61°F , 16°C
Humidity: 83%
Barometer: 30.08 inHg , 1018.6 hPa
Clouds: Clear
Visibility: 10 miles , 16 km
2017/10/21 07:56 KMOB 210756Z AUTO 07008KT 10SM CLR 19/16 A3008 RMK AO2 SLP184 T01940156
KHSA - Bay St Louis, Mississippi, USA
Distance from station: S 88mi, 141km
Updated: Fri, 20-Oct-2017 8:52pm CDT
NOT Current
Mostly cloudy
Mostly cloudy
 Wind from E
Wind: E 3 mph , 6 km/h
Temperature: 72°F , 22°C
Dew Point: 68°F , 20°C
Humidity: 88%
Barometer: 30.09 inHg , 1019 hPa
Clouds: Mostly cloudy
Visibility: 10 miles , 16 km
Cloud details: Mostly cloudy 9000 ft
2017/10/21 01:52 KHSA 210152Z 08003KT 10SM BKN090 22/20 A3009
 
KPQL - Pascagoula, Mississippi, USA
Distance from station: SSE 90mi, 145km
Updated: Sat, 21-Oct-2017 2:53am CDT
Clear
Clear
 Wind from calm
Wind: Calm
Temperature: 68°F , 20°C
Dew Point: 63°F , 17°C
Humidity: 83%
Barometer: 30.07 inHg , 1018.3 hPa
Clouds: Clear
Visibility: 10 miles , 16 km
2017/10/21 07:53 KPQL 210753Z AUTO 00000KT 10SM CLR 20/17 A3007 RMK AO2 SLP182 T02000172
KASD - Slidell 22, Louisiana, USA
Distance from station: SSW 94mi, 152km
Updated: Sat, 21-Oct-2017 2:53am CDT
Mostly cloudy
Mostly cloudy
 Wind from calm
Wind: Calm
Temperature: 70°F , 21°C
Dew Point: 66°F , 19°C
Humidity: 88%
Barometer: 30.04 inHg , 1017.3 hPa
Clouds: Mostly cloudy
Visibility: 10 miles , 16 km
Cloud details: Mostly cloudy 2900 ft
2017/10/21 07:53 KASD 210753Z AUTO 00000KT 10SM BKN029 21/19 A3004 RMK AO2 SLP172 T02060194
 
KBFM - Mobile/Brookley, Alabama, USA
Distance from station: SE 98mi, 158km
Updated: Sat, 21-Oct-2017 2:53am CDT
Clear
Clear
 Wind from ENE
Wind: ENE 10 mph , 17 km/h
Temperature: 72°F , 22°C
Dew Point: 64°F , 18°C
Humidity: 78%
Barometer: 30.09 inHg , 1019 hPa
Clouds: Clear
Visibility: 10 miles , 16 km
2017/10/21 07:53 KBFM 210753Z AUTO 07009KT 10SM CLR 22/18 A3009 RMK AO2 SLP189 T02220183
KHDC - Hammond, Louisiana, USA
Distance from station: SW 104mi, 167km
Updated: Sat, 21-Oct-2017 3:35am CDT
Clear
Clear
 Wind from calm
Wind: Calm
Temperature: 70°F , 21°C
Dew Point: 64°F , 18°C
Humidity: 83%
Barometer: 30.04 inHg , 1017.3 hPa
Clouds: Clear
Visibility: 10 miles , 16 km
2017/10/21 08:35 KHDC 210835Z AUTO 00000KT 10SM CLR 21/18 A3004 RMK AO2
 
KMSY - New Orleans, Louisiana, USA
Distance from station: SW 128mi, 206km
Updated: Sat, 21-Oct-2017 2:53am CDT
Mostly cloudy
Mostly cloudy
 Wind from ESE
Wind: ESE 14 mph , 22 km/h
Temperature: 75°F , 24°C
Dew Point: 72°F , 22°C
Humidity: 89%
Barometer: 30.03 inHg , 1016.9 hPa
Clouds: Mostly cloudy
Visibility: 10 miles , 16 km
Cloud details: Mostly cloudy 23000 ft
2017/10/21 07:53 KMSY 210753Z 12012KT 10SM BKN230 24/22 A3003 RMK AO2 SLP172 T02440217
KJKA - Gulf Shores, Alabama, USA
Distance from station: SE 130mi, 210km
Updated: Sat, 21-Oct-2017 3:35am CDT
Clear
Clear
 Wind from ENE
Wind: ENE 7 mph , 11 km/h
Temperature: 70°F , 21°C
Dew Point: 68°F , 20°C
Humidity: 94%
Barometer: 30.06 inHg , 1017.9 hPa
Clouds: Clear
Visibility: 10 miles , 16 km
2017/10/21 08:35 KJKA 210835Z AUTO 07006KT 10SM CLR 21/20 A3006 RMK AO2 T02100201
 
KGTR - Golden Triangle Airport, Mississippi, USA
Distance from station: NNE 132mi, 212km
Updated: Sat, 21-Oct-2017 2:56am CDT
Clear
Clear
 Wind from SE
Wind: SE 5 mph , 7 km/h
Temperature: 57°F , 14°C
Dew Point: 54°F , 12°C
Humidity: 88%
Barometer: 30.12 inHg , 1020 hPa
Clouds: Clear
Visibility: 10 miles , 16 km
2017/10/21 07:56 KGTR 210756Z AUTO 14004KT 10SM CLR 14/12 A3012 RMK AO2 SLP200 T01440117
KBTR - Baton Rouge, Louisiana, USA
Distance from station: SW 147mi, 236km
Updated: Sat, 21-Oct-2017 2:53am CDT
Few Clouds
Few Clouds
 Wind from E
Wind: E 8 mph , 13 km/h
Temperature: 70°F , 21°C
Dew Point: 68°F , 20°C
Humidity: 94%
Barometer: 30.03 inHg , 1016.9 hPa
Clouds: Few Clouds
Visibility: 10 miles , 16 km
Cloud details: Few Clouds 1700 ft
Few Clouds 2900 ft
Few Clouds 6000 ft
2017/10/21 07:53 KBTR 210753Z AUTO 08007KT 10SM FEW017 FEW029 FEW060 21/20 A3003 RMK AO2 SLP168 T02110200
 
KMGM - Montgomery, Alabama, USA
Distance from station: ENE 172mi, 277km
Updated: Sat, 21-Oct-2017 2:53am CDT
Clear
Clear
 Wind from ENE
Wind: ENE 3 mph , 6 km/h
Temperature: 57°F , 14°C
Dew Point: 52°F , 11°C
Humidity: 82%
Barometer: 30.16 inHg , 1021.3 hPa
Clouds: Clear
Visibility: 10 miles , 16 km
2017/10/21 07:53 KMGM 210753Z AUTO 07003KT 10SM CLR 14/11 A3016 RMK AO2 SLP210 T01440106
KBHM - Birmingham, Alabama, USA
Distance from station: ENE 198mi, 318km
Updated: Sat, 21-Oct-2017 2:53am CDT
Clear
Clear
 Wind from E
Wind: E 3 mph , 6 km/h
Temperature: 55°F , 13°C
Dew Point: 50°F , 10°C
Humidity: 82%
Barometer: 30.19 inHg , 1022.4 hPa
Clouds: Clear
Visibility: 10 miles , 16 km
2017/10/21 07:53 KBHM 210753Z 09003KT 10SM CLR 13/10 A3019 RMK AO2 SLP217 T01330100
 
KMEM - Memphis, Tennessee, USA
Distance from station: NNW 242mi, 389km
Updated: Sat, 21-Oct-2017 2:54am CDT
Partly cloudy
Partly cloudy
 Wind from S
Wind: S 6 mph , 9 km/h
Temperature: 63°F , 17°C
Dew Point: 55°F , 13°C
Humidity: 77%
Barometer: 30.09 inHg , 1019 hPa
Clouds: Partly cloudy
Visibility: 10 miles , 16 km
Cloud details: Partly cloudy 25000 ft
2017/10/21 07:54 KMEM 210754Z 18005KT 10SM SCT250 17/13 A3009 RMK AO2 SLP186 T01720128
KHSV - Huntsville, Alabama, USA
Distance from station: NE 252mi, 406km
Updated: Sat, 21-Oct-2017 2:53am CDT
Clear
Clear
 Wind from E
Wind: E 8 mph , 13 km/h
Temperature: 52°F , 11°C
Dew Point: 52°F , 11°C
Humidity: 100%
Barometer: 30.18 inHg , 1022 hPa
Clouds: Clear
Visibility: 10 miles , 16 km
2017/10/21 07:53 KHSV 210753Z AUTO 10007KT 10SM CLR 11/11 A3018 RMK AO2 SLP215 T01110106 $
 
KM54 - Lebanon, Tennessee, USA
Distance from station: NNE 357mi, 575km
Updated: Thu, 08-Sep-2011 11:45am CDT
NOT Current
Overcast
Overcast
 Wind from WNW
Wind: WNW 5 mph , 7 km/h
Temperature: 64°F , 18°C
Dew Point: 55°F , 13°C
Humidity: 73%
Barometer: 29.99 inHg , 1015.6 hPa
Clouds: Overcast
Visibility: 10 miles , 16 km
Cloud details: Overcast 3100 ft
2011/09/08 16:45 KM54 081645Z AUTO 29004KT 10SM OVC031 18/13 A2999 RMK AO1 OVC V BKN $
KJLN - Joplin, Missouri USA
Distance from station: NW 486mi, 782km
Updated: Sat, 21-Oct-2017 12:53am CDT
NOT Current
Clear
Clear
 Wind from SSE
Wind: SSE 12 mph , 19 km/h
Temperature: 63°F , 17°C
Dew Point: 57°F , 14°C
Humidity: 83%
Barometer: 29.94 inHg , 1013.9 hPa
Clouds: Clear
Visibility: 10 miles , 16 km
2017/10/21 05:53 KJLN 210553Z AUTO 16010KT 10SM CLR 17/14 A2994 RMK AO2 RAB20E21B38E46 SLP131 P0000 60000 T01720144 10211 20172 402390128 51004
 
KOKC - Oklahoma City, Oklahoma USA
Distance from station: WNW 547mi, 881km
Updated: Sat, 21-Oct-2017 2:52am CDT
Overcast
Overcast
 Wind from S
Wind: S 22 mph , 35 km/h, Gust: 30 mph , 48 km/h
Temperature: 70°F , 21°C
Dew Point: 64°F , 18°C
Humidity: 83%
Barometer: 29.82 inHg , 1009.8 hPa
Clouds: Overcast
Visibility: 10 miles , 16 km
Cloud details: Mostly cloudy 1700 ft
Overcast 2200 ft
2017/10/21 07:52 KOKC 210752Z 17019G26KT 10SM BKN017 OVC022 21/18 A2982 RMK AO2 PK WND 17027/0657 SLP086 T02060178